createdAt,value
2023-04-19T00:00:14.907Z,7.18
2023-04-19T00:02:43.409Z,7.38
2023-04-19T00:05:11.982Z,6.87
2023-04-19T00:07:41.322Z,6.60
2023-04-19T00:10:10.203Z,6.75
2023-04-19T00:12:38.043Z,7.18
2023-04-19T00:15:06.832Z,6.63
2023-04-19T00:17:34.859Z,6.75
2023-04-19T00:20:03.074Z,6.70
2023-04-19T00:22:30.879Z,6.85
2023-04-19T00:24:59.965Z,6.80
2023-04-19T00:27:27.641Z,6.55
2023-04-19T00:29:55.317Z,6.60
2023-04-19T00:32:23.025Z,6.85
2023-04-19T00:34:50.774Z,6.57
2023-04-19T00:37:18.552Z,6.30
2023-04-19T00:39:46.233Z,6.22
2023-04-19T00:42:15.704Z,6.07
2023-04-19T00:44:43.537Z,6.43
2023-04-19T00:47:11.231Z,5.60
2023-04-19T00:49:38.973Z,5.72
2023-04-19T00:52:06.915Z,5.87
2023-04-19T00:54:34.728Z,5.60
2023-04-19T00:57:03.025Z,5.00
2023-04-19T00:59:32.171Z,5.30
2023-04-19T01:01:59.947Z,5.43
2023-04-19T01:04:28.161Z,5.60
2023-04-19T01:06:56.069Z,5.47
2023-04-19T01:09:23.717Z,5.15
2023-04-19T01:11:51.976Z,5.53
2023-04-19T01:14:19.614Z,5.35
2023-04-19T01:16:49.130Z,4.93
2023-04-19T01:19:16.809Z,5.03
2023-04-19T01:21:44.612Z,4.97
2023-04-19T01:24:14.072Z,5.00
2023-04-19T01:26:41.970Z,5.03
2023-04-19T01:29:09.664Z,4.85
2023-04-19T01:31:37.371Z,4.75
2023-04-19T01:34:05.648Z,4.57
2023-04-19T01:36:33.344Z,5.03
2023-04-19T01:39:01.308Z,5.30
2023-04-19T01:41:31.042Z,4.50
2023-04-19T01:43:58.762Z,4.80
2023-04-19T01:46:26.468Z,4.70
2023-04-19T01:48:54.174Z,4.93
2023-04-19T01:51:22.282Z,4.85
2023-04-19T01:53:52.475Z,4.72
2023-04-19T01:56:20.284Z,4.38
2023-04-19T01:58:49.493Z,4.75
2023-04-19T02:01:17.219Z,4.32
2023-04-19T02:03:45.221Z,5.13
2023-04-19T02:06:13.544Z,5.05
2023-04-19T02:08:41.341Z,5.10
2023-04-19T02:11:09.786Z,4.43
2023-04-19T02:13:37.524Z,4.82
2023-04-19T02:16:07.515Z,4.90
2023-04-19T02:18:38.454Z,5.07
2023-04-19T02:21:06.943Z,5.40
2023-04-19T02:23:35.482Z,5.07
2023-04-19T02:26:03.778Z,5.00
2023-04-19T02:28:31.726Z,5.10
2023-04-19T02:30:59.497Z,5.05
2023-04-19T02:33:29.175Z,4.78
2023-04-19T02:35:56.879Z,5.47
2023-04-19T02:38:24.704Z,5.22
2023-04-19T02:40:52.421Z,5.10
2023-04-19T02:43:20.121Z,5.50
2023-04-19T02:45:47.914Z,4.72
2023-04-19T02:48:15.650Z,5.20
2023-04-19T02:50:44.729Z,5.00
2023-04-19T02:53:12.445Z,5.03
2023-04-19T02:55:40.678Z,5.07
2023-04-19T02:58:08.644Z,4.88
2023-04-19T03:03:46.191Z,5.65
2023-04-19T03:06:16.935Z,4.57
2023-04-19T03:08:45.067Z,5.25
2023-04-19T03:11:13.348Z,4.60
2023-04-19T03:13:41.110Z,4.38
2023-04-19T03:16:09.811Z,4.47
2023-04-19T03:18:37.685Z,4.30
2023-04-19T03:21:05.678Z,4.32
2023-04-19T03:23:34.772Z,4.07
2023-04-19T03:26:02.491Z,3.80
2023-04-19T03:28:30.263Z,3.92
2023-04-19T03:30:58.073Z,4.15
2023-04-19T03:33:25.779Z,3.90
2023-04-19T03:35:53.483Z,3.90
2023-04-19T03:38:21.172Z,4.17
2023-04-19T03:40:50.290Z,3.80
2023-04-19T03:43:18.531Z,3.88
2023-04-19T03:45:46.237Z,3.60
2023-04-19T03:48:13.926Z,3.60
2023-04-19T03:50:41.750Z,3.72
2023-04-19T03:53:10.366Z,3.50
2023-04-19T03:55:38.297Z,3.95
2023-04-19T03:58:07.364Z,3.70
2023-04-19T04:00:35.084Z,4.13
2023-04-19T04:03:02.916Z,4.15
2023-04-19T04:05:31.502Z,3.88
2023-04-19T04:07:59.311Z,3.87
2023-04-19T04:10:27.130Z,3.72
2023-04-19T04:12:55.225Z,3.60
2023-04-19T04:15:24.338Z,3.23
2023-04-19T04:17:52.312Z,3.70
2023-04-19T04:20:20.359Z,3.47
2023-04-19T04:22:48.090Z,4.00
2023-04-19T04:25:16.682Z,3.63
2023-04-19T04:27:45.064Z,4.15
2023-04-19T04:30:13.294Z,3.33
2023-04-19T04:32:43.461Z,3.42
2023-04-19T04:35:12.277Z,3.10
2023-04-19T04:37:40.271Z,2.95
2023-04-19T04:40:09.858Z,3.05
2023-04-19T04:42:38.252Z,3.50
2023-04-19T04:45:07.133Z,3.27
2023-04-19T04:47:35.785Z,2.60
2023-04-19T04:50:06.083Z,3.10
2023-04-19T04:52:34.089Z,3.10
2023-04-19T04:55:01.847Z,3.00
2023-04-19T04:57:29.618Z,3.53
2023-04-19T04:59:57.597Z,2.65
2023-04-19T05:02:25.736Z,2.60
2023-04-19T05:04:53.528Z,2.85
2023-04-19T05:07:22.822Z,3.20
2023-04-19T05:09:50.597Z,2.80
2023-04-19T05:12:18.303Z,2.53
2023-04-19T05:14:46.038Z,2.33
2023-04-19T05:17:13.719Z,2.88
2023-04-19T05:19:41.491Z,2.80
2023-04-19T05:22:09.282Z,2.60
2023-04-19T05:24:39.305Z,2.42
2023-04-19T05:27:08.336Z,2.50
2023-04-19T05:29:36.096Z,2.47
2023-04-19T05:32:03.787Z,2.45
2023-04-19T05:34:31.565Z,2.40
2023-04-19T05:36:59.262Z,2.60
2023-04-19T05:39:27.334Z,2.25
2023-04-19T05:41:56.488Z,2.40
2023-04-19T05:44:24.196Z,2.22
2023-04-19T05:46:51.918Z,2.60
2023-04-19T05:49:19.658Z,2.20
2023-04-19T05:51:47.441Z,2.30
2023-04-19T05:54:15.430Z,2.38
2023-04-19T05:56:43.625Z,2.47
2023-04-19T05:59:14.104Z,2.75
2023-04-19T06:01:42.229Z,2.67
2023-04-19T06:04:10.460Z,2.55
2023-04-19T06:06:38.772Z,2.17
2023-04-19T06:09:07.171Z,2.30
2023-04-19T06:11:49.467Z,2.10
2023-04-19T06:14:20.215Z,2.20
2023-04-19T06:16:48.070Z,2.10
2023-04-19T06:19:16.031Z,2.85
2023-04-19T06:21:43.741Z,2.63
2023-04-19T06:24:11.657Z,2.17
2023-04-19T06:26:39.391Z,2.40
2023-04-19T06:29:07.501Z,2.08
2023-04-19T06:31:36.691Z,2.45
2023-04-19T06:34:04.545Z,2.40
2023-04-19T06:36:32.603Z,2.10
2023-04-19T06:39:00.524Z,2.60
2023-04-19T06:41:28.262Z,2.85
2023-04-19T06:43:56.231Z,2.58
2023-04-19T06:46:23.963Z,2.45
2023-04-19T06:48:53.150Z,2.30
2023-04-19T06:51:20.864Z,2.22
2023-04-19T06:53:54.850Z,2.15
2023-04-19T06:56:40.847Z,2.10
2023-04-19T06:59:08.666Z,1.98
2023-04-19T07:01:36.588Z,2.75
2023-04-19T07:04:06.033Z,2.22
2023-04-19T07:06:33.990Z,2.00
2023-04-19T07:09:01.697Z,2.20
2023-04-19T07:16:57.380Z,1.77
2023-04-19T07:19:28.264Z,2.10
2023-04-19T07:21:57.961Z,2.40
2023-04-19T07:27:47.195Z,1.98
2023-04-19T07:30:40.226Z,1.90
2023-04-19T07:42:31.016Z,1.80
2023-04-19T07:48:01.971Z,2.00
2023-04-19T07:50:32.166Z,1.90
2023-04-19T07:53:10.201Z,1.80
2023-04-19T07:55:39.833Z,1.52
2023-04-19T07:58:07.551Z,1.70
2023-04-19T08:00:54.776Z,1.48
2023-04-19T08:09:00.966Z,1.67
2023-04-19T08:15:19.585Z,1.60
2023-04-19T08:20:38.899Z,1.52
2023-04-19T08:23:20.496Z,1.50
2023-04-19T08:28:32.393Z,1.80
2023-04-19T08:33:43.438Z,1.95
2023-04-19T08:36:11.668Z,2.15
2023-04-19T08:38:44.562Z,1.52
2023-04-19T08:41:14.759Z,1.80
2023-04-19T08:43:44.802Z,2.03
2023-04-19T08:46:14.495Z,1.67
2023-04-19T08:48:42.316Z,1.60
2023-04-19T08:51:11.976Z,1.73
2023-04-19T08:53:40.521Z,1.50
2023-04-19T08:56:20.650Z,1.58
2023-04-19T08:59:01.052Z,1.85
2023-04-19T09:01:44.485Z,1.65
2023-04-19T09:06:43.673Z,1.77
2023-04-19T09:11:50.966Z,1.85
2023-04-19T09:14:20.174Z,1.60
2023-04-19T09:16:51.956Z,1.80
2023-04-19T09:19:24.947Z,1.98
2023-04-19T09:21:54.846Z,1.73
2023-04-19T09:27:11.980Z,1.73
2023-04-19T09:29:39.870Z,1.80
2023-04-19T09:32:09.160Z,1.80
2023-04-19T09:34:37.039Z,1.70
2023-04-19T09:37:22.846Z,1.60
2023-04-19T09:40:03.109Z,1.73
2023-04-19T09:43:04.318Z,1.75
2023-04-19T09:45:44.050Z,1.75
2023-04-19T09:48:14.656Z,1.77
2023-04-19T09:50:58.514Z,1.57
2023-04-19T09:53:29.940Z,1.88
2023-04-19T09:56:01.910Z,1.77
2023-04-19T10:01:13.511Z,1.60
2023-04-19T10:03:44.762Z,1.70
2023-04-19T10:06:26.974Z,1.57
2023-04-19T10:09:03.364Z,2.00
2023-04-19T10:11:37.256Z,2.08
2023-04-19T10:14:07.226Z,1.98
2023-04-19T10:16:35.707Z,2.05
2023-04-19T10:19:08.702Z,1.90
2023-04-19T10:21:38.723Z,2.08
2023-04-19T10:24:07.478Z,1.90
2023-04-19T10:27:08.810Z,1.73
2023-04-19T10:29:58.938Z,2.00
2023-04-19T10:32:28.942Z,2.05
2023-04-19T10:35:02.802Z,2.17
2023-04-19T10:37:33.744Z,2.27
2023-04-19T10:40:01.523Z,2.30
2023-04-19T10:43:02.798Z,2.47
2023-04-19T10:45:34.152Z,2.00
2023-04-19T10:48:04.277Z,2.33
2023-04-19T10:50:59.382Z,2.42
2023-04-19T10:53:50.849Z,2.57
2023-04-19T10:56:19.870Z,3.10
2023-04-19T11:00:04.753Z,2.00
2023-04-19T11:02:38.777Z,2.33
2023-04-19T11:05:09.317Z,2.63
2023-04-19T11:07:42.722Z,2.10
2023-04-19T11:10:11.809Z,2.30
2023-04-19T11:12:43.489Z,2.20
2023-04-19T11:15:12.082Z,2.20
2023-04-19T11:17:39.891Z,2.00
2023-04-19T11:20:10.022Z,1.80
2023-04-19T11:22:39.227Z,2.10
2023-04-19T11:25:10.085Z,2.00
2023-04-19T11:27:37.989Z,2.05
2023-04-19T11:30:06.860Z,1.80
2023-04-19T11:32:34.923Z,1.80
2023-04-19T11:35:07.686Z,1.90
2023-04-19T11:37:36.468Z,2.05
2023-04-19T11:40:06.483Z,1.83
2023-04-19T11:42:35.885Z,2.00
2023-04-19T11:45:05.196Z,1.85
2023-04-19T11:47:35.368Z,1.77
2023-04-19T11:50:34.324Z,1.88
2023-04-19T11:53:11.559Z,2.10
2023-04-19T11:55:39.495Z,1.90
2023-04-19T11:58:10.675Z,2.22
2023-04-19T12:00:38.607Z,1.90
2023-04-19T12:03:06.686Z,2.22
2023-04-19T12:05:34.937Z,1.90
2023-04-19T12:08:04.010Z,1.77
2023-04-19T12:10:32.226Z,2.15
2023-04-19T12:13:00.054Z,2.33
2023-04-19T12:18:19.962Z,1.97
2023-04-19T12:20:49.504Z,2.05
2023-04-19T12:23:18.515Z,2.00
2023-04-19T12:25:47.518Z,1.92
2023-04-19T12:28:16.400Z,2.10
2023-04-19T12:30:44.759Z,1.80
2023-04-19T12:33:12.646Z,1.80
2023-04-19T12:35:42.946Z,1.73
2023-04-19T12:38:13.886Z,1.70
2023-04-19T12:40:41.773Z,1.65
2023-04-19T12:43:09.561Z,1.70
2023-04-19T12:45:37.679Z,2.10
2023-04-19T12:48:07.238Z,1.63
2023-04-19T12:50:35.392Z,1.80
2023-04-19T12:53:04.522Z,2.08
2023-04-19T12:55:32.254Z,1.70
2023-04-19T12:58:00.177Z,1.83
2023-04-19T13:00:28.107Z,2.13
2023-04-19T13:02:56.536Z,1.80
2023-04-19T13:05:24.988Z,2.05
2023-04-19T13:07:53.048Z,2.10
2023-04-19T13:10:22.585Z,1.88
2023-04-19T13:12:50.702Z,1.80
2023-04-19T13:15:18.473Z,1.60
2023-04-19T13:17:46.618Z,1.80
2023-04-19T13:20:14.411Z,1.73
2023-04-19T13:22:42.516Z,1.77
2023-04-19T13:25:11.152Z,1.60
2023-04-19T13:27:40.729Z,1.70
2023-04-19T13:30:10.069Z,1.73
2023-04-19T13:32:37.909Z,1.50
2023-04-19T13:35:06.292Z,2.00
2023-04-19T13:37:34.099Z,1.57
2023-04-19T13:40:17.531Z,1.70
2023-04-19T13:42:47.884Z,1.55
2023-04-19T13:45:15.878Z,1.38
2023-04-19T13:47:43.661Z,1.45
2023-04-19T13:50:13.021Z,1.38
2023-04-19T13:52:42.330Z,1.30
2023-04-19T13:55:10.927Z,1.27
2023-04-19T13:57:38.830Z,1.27
2023-04-19T14:00:09.636Z,1.55
2023-04-19T14:02:37.965Z,1.30
2023-04-19T14:05:07.023Z,1.35
2023-04-19T14:07:34.982Z,1.50
2023-04-19T14:10:02.759Z,1.23
2023-04-19T14:12:30.738Z,1.15
2023-04-19T14:14:58.961Z,1.10
2023-04-19T14:17:28.149Z,1.10
2023-04-19T14:19:56.552Z,1.17
2023-04-19T14:22:24.337Z,1.13
2023-04-19T14:24:52.190Z,1.00
2023-04-19T14:27:29.184Z,1.30
2023-04-19T14:29:58.965Z,1.20
2023-04-19T14:32:28.397Z,1.50
2023-04-19T14:34:56.913Z,1.35
2023-04-19T14:37:34.402Z,1.27
2023-04-19T14:40:02.195Z,1.30
2023-04-19T14:42:30.103Z,0.93
2023-04-19T14:44:58.900Z,1.20
2023-04-19T14:47:28.218Z,1.33
2023-04-19T14:49:56.148Z,1.42
2023-04-19T14:52:24.497Z,1.40
2023-04-19T14:54:52.552Z,1.50
2023-04-19T14:57:20.402Z,1.30
2023-04-19T14:59:48.169Z,1.45
2023-04-19T15:02:16.668Z,1.55
2023-04-19T15:04:46.073Z,1.40
2023-04-19T15:07:14.138Z,1.30
2023-04-19T15:09:41.810Z,1.52
2023-04-19T15:12:09.713Z,1.50
2023-04-19T15:14:37.740Z,1.45
2023-04-19T15:17:06.014Z,1.30
2023-04-19T15:19:33.962Z,1.25
2023-04-19T15:22:04.186Z,1.50
2023-04-19T15:24:32.036Z,1.42
2023-04-19T15:27:00.224Z,1.33
2023-04-19T15:29:28.314Z,1.33
2023-04-19T15:31:56.241Z,1.20
2023-04-19T15:34:25.575Z,1.30
2023-04-19T15:36:53.518Z,1.20
2023-04-19T15:39:22.668Z,1.50
2023-04-19T15:41:50.736Z,1.48
2023-04-19T15:44:18.459Z,1.40
2023-04-19T15:46:46.439Z,1.70
2023-04-19T15:49:14.395Z,1.50
2023-04-19T15:51:42.524Z,1.60
2023-04-19T15:54:11.425Z,1.27
2023-04-19T15:56:41.149Z,1.85
2023-04-19T15:59:09.115Z,1.27
2023-04-19T16:01:38.610Z,1.60
2023-04-19T16:04:06.644Z,1.30
2023-04-19T16:06:34.720Z,1.70
2023-04-19T16:09:02.539Z,1.27
2023-04-19T16:11:30.929Z,1.60
2023-04-19T16:14:00.589Z,1.60
2023-04-19T16:16:31.613Z,1.60
2023-04-19T16:18:59.375Z,1.80
2023-04-19T16:21:28.928Z,1.73
2023-04-19T16:23:57.229Z,1.80
2023-04-19T16:26:25.377Z,1.85
2023-04-19T16:28:53.121Z,1.73
2023-04-19T16:31:22.340Z,1.43
2023-04-19T16:33:50.095Z,1.92
2023-04-19T16:36:17.854Z,1.60
2023-04-19T16:38:45.830Z,1.52
2023-04-19T16:41:13.558Z,2.10
2023-04-19T16:43:41.252Z,1.70
2023-04-19T16:46:09.307Z,1.98
2023-04-19T16:48:38.840Z,2.05
2023-04-19T16:51:06.960Z,2.13
2023-04-19T16:53:35.069Z,1.90
2023-04-19T16:56:03.983Z,2.03
2023-04-19T16:58:32.072Z,1.98
2023-04-19T17:01:02.079Z,2.15
2023-04-19T17:03:30.880Z,2.20
2023-04-19T17:06:00.669Z,2.05
2023-04-19T17:08:28.992Z,2.20
2023-04-19T17:10:57.301Z,1.92
2023-04-19T17:13:25.344Z,2.08
2023-04-19T17:15:54.036Z,2.00
2023-04-19T17:18:22.480Z,2.08
2023-04-19T17:20:50.478Z,2.40
2023-04-19T17:23:19.764Z,2.28
2023-04-19T17:25:47.969Z,2.40
2023-04-19T17:28:16.464Z,2.10
2023-04-19T17:30:44.215Z,2.03
2023-04-19T17:33:12.137Z,2.42
2023-04-19T17:35:40.099Z,1.90
2023-04-19T17:38:08.015Z,2.13
2023-04-19T17:40:37.914Z,2.05
2023-04-19T17:43:06.038Z,1.92
2023-04-19T17:45:37.479Z,1.92
2023-04-19T17:48:05.936Z,1.90
2023-04-19T17:50:33.801Z,1.90
2023-04-19T17:53:01.787Z,2.33
2023-04-19T17:55:29.751Z,2.10
2023-04-19T17:57:59.694Z,2.13
2023-04-19T18:00:27.494Z,2.45
2023-04-19T18:02:55.438Z,2.20
2023-04-19T18:05:24.000Z,2.17
2023-04-19T18:07:51.729Z,2.35
2023-04-19T18:10:19.547Z,2.22
2023-04-19T18:12:47.259Z,2.45
2023-04-19T18:15:16.527Z,2.58
2023-04-19T18:17:44.440Z,2.33
2023-04-19T18:20:13.866Z,2.38
2023-04-19T18:22:41.977Z,2.28
2023-04-19T18:25:10.930Z,2.22
2023-04-19T18:27:38.908Z,2.38
2023-04-19T18:30:07.818Z,2.50
2023-04-19T18:32:37.314Z,2.47
2023-04-19T18:35:05.853Z,2.40
2023-04-19T18:37:33.873Z,2.17
2023-04-19T18:40:23.530Z,2.20
2023-04-19T18:42:51.523Z,2.00
2023-04-19T18:45:19.253Z,2.67
2023-04-19T18:47:48.586Z,2.13
2023-04-19T18:50:19.190Z,2.33
2023-04-19T18:52:47.168Z,2.10
2023-04-19T18:55:16.083Z,2.10
2023-04-19T18:57:44.052Z,2.15
2023-04-19T19:00:13.047Z,2.50
2023-04-19T19:02:41.684Z,2.13
2023-04-19T19:05:13.846Z,2.03
2023-04-19T19:07:42.127Z,2.58
2023-04-19T19:12:43.049Z,2.53
2023-04-19T19:15:11.932Z,2.00
2023-04-19T19:17:40.133Z,2.30
2023-04-19T19:20:09.682Z,2.42
2023-04-19T19:22:39.184Z,2.40
2023-04-19T19:25:08.001Z,2.13
2023-04-19T19:27:35.895Z,1.93
2023-04-19T19:30:03.880Z,2.20
2023-04-19T19:32:32.593Z,2.35
2023-04-19T19:35:04.803Z,2.00
2023-04-19T19:37:34.171Z,2.15
2023-04-19T19:40:05.264Z,1.98
2023-04-19T19:42:33.919Z,2.20
2023-04-19T19:45:02.176Z,2.20
2023-04-19T19:47:31.608Z,2.38
2023-04-19T19:52:31.900Z,2.30
2023-04-19T19:55:00.169Z,1.90
2023-04-19T19:58:18.551Z,2.30
2023-04-19T20:05:21.049Z,2.40
2023-04-19T20:08:00.938Z,2.00
2023-04-19T20:10:30.839Z,2.10
2023-04-19T20:13:01.489Z,2.20
2023-04-19T20:15:30.283Z,3.15
2023-04-19T20:17:58.479Z,2.05
2023-04-19T20:20:26.299Z,2.47
2023-04-19T20:22:56.496Z,2.28
2023-04-19T20:25:24.214Z,2.20
2023-04-19T20:27:51.925Z,2.00
2023-04-19T20:30:21.217Z,2.20
2023-04-19T20:32:50.312Z,2.70
2023-04-19T20:38:58.964Z,2.17
2023-04-19T20:41:27.085Z,2.42
2023-04-19T20:43:59.994Z,1.90
2023-04-19T20:46:29.488Z,2.20
2023-04-19T20:48:57.667Z,2.15
2023-04-19T20:51:27.225Z,2.20
2023-04-19T20:56:43.662Z,2.47
2023-04-19T20:59:11.680Z,2.10
2023-04-19T21:01:41.589Z,2.00
2023-04-19T21:04:09.429Z,1.65
2023-04-19T21:06:37.171Z,2.05
2023-04-19T21:09:05.157Z,2.22
2023-04-19T21:11:33.338Z,2.03
2023-04-19T21:14:01.139Z,1.85
2023-04-19T21:16:28.969Z,3.00
2023-04-19T21:18:58.112Z,1.75
2023-04-19T21:21:26.342Z,1.85
2023-04-19T21:23:54.024Z,2.30
2023-04-19T21:35:10.893Z,2.25
2023-04-19T21:37:38.647Z,2.00
2023-04-19T21:40:07.620Z,2.10
2023-04-19T21:42:35.628Z,2.00
2023-04-19T21:45:03.470Z,2.13
2023-04-19T21:47:31.937Z,2.20
2023-04-19T21:49:59.871Z,2.08
2023-04-19T21:52:29.022Z,2.42
2023-04-19T21:54:56.872Z,2.10
2023-04-19T21:57:25.959Z,1.87
2023-04-19T21:59:53.723Z,2.53
2023-04-19T22:02:21.469Z,2.00
2023-04-19T22:04:49.899Z,1.90
2023-04-19T22:07:18.775Z,2.00
2023-04-19T22:09:47.946Z,2.35
2023-04-19T22:12:15.672Z,2.28
2023-04-19T22:14:43.689Z,2.17
2023-04-19T22:17:12.533Z,2.60
2023-04-19T22:19:40.404Z,2.38
2023-04-19T22:22:08.227Z,2.28
2023-04-19T22:24:43.941Z,2.42
2023-04-19T22:27:22.745Z,2.07
2023-04-19T22:29:50.515Z,2.43
2023-04-19T22:32:18.446Z,2.15
2023-04-19T22:34:46.250Z,2.20
2023-04-19T22:37:14.088Z,2.20
2023-04-19T22:39:41.881Z,2.00
2023-04-19T22:42:09.619Z,2.10
2023-04-19T22:44:38.692Z,1.90
2023-04-19T22:47:06.484Z,2.30
2023-04-19T22:49:35.170Z,2.20
2023-04-19T22:52:02.961Z,2.00
2023-04-19T22:54:31.167Z,2.15
2023-04-19T22:56:58.883Z,2.38
2023-04-19T22:59:26.604Z,2.33
2023-04-19T23:01:55.972Z,2.10
2023-04-19T23:04:24.124Z,2.15
2023-04-19T23:06:52.673Z,1.83
2023-04-19T23:09:20.428Z,2.03
2023-04-19T23:11:48.936Z,2.28
2023-04-19T23:14:18.450Z,2.63
2023-04-19T23:16:46.551Z,2.27
2023-04-19T23:19:16.600Z,2.00
2023-04-19T23:21:44.983Z,2.00
2023-04-19T23:24:12.947Z,1.95
2023-04-19T23:26:40.629Z,2.10
2023-04-19T23:29:08.447Z,1.90
2023-04-19T23:31:39.251Z,1.90
2023-04-19T23:34:07.238Z,1.77
2023-04-19T23:36:36.708Z,1.63
2023-04-19T23:39:05.046Z,1.90
2023-04-19T23:41:32.866Z,1.90
2023-04-19T23:44:00.604Z,2.08
2023-04-19T23:46:28.380Z,2.15
2023-04-19T23:48:56.177Z,1.83
2023-04-19T23:51:23.906Z,1.90
2023-04-19T23:53:53.158Z,2.13
2023-04-19T23:56:21.202Z,2.30
2023-04-19T23:58:48.885Z,2.08
